Time;durP1;ratioP1;P1;durP2;ratioP2;P2;SDS_P1;SDS_P2;PMS_P1;PMS_P2;Temp;Humidity;BMP_temperature;BMP_pressure;BME280_temperature;BME280_humidity;BME280_pressure;Samples;Min_cycle;Max_cycle;Signal;HPM_P1;HPM_P2
2021/07/10 00:00:12;;;;;;;21.57;16.60;;;;;;;15.64;78.31;102067.56;691182;28;917;-58
2021/07/10 00:00:37;;;;;;;20.85;16.58;;;;;;;15.60;78.50;102071.28;690979;28;947;-58
2021/07/10 00:00:57;;;;;;;21.73;16.80;;;;;;;15.56;78.80;102075.03;691213;28;852;-58
2021/07/10 00:01:18;;;;;;;23.17;17.70;;;;;;;15.54;78.96;102071.56;691197;28;804;-58
2021/07/10 00:01:38;;;;;;;21.77;17.73;;;;;;;15.57;79.09;102071.44;691165;28;988;-58
2021/07/10 00:01:59;;;;;;;22.97;17.87;;;;;;;15.55;78.88;102070.63;691021;28;1891;-58
2021/07/10 00:02:20;;;;;;;22.95;18.08;;;;;;;15.57;78.64;102070.56;691089;28;870;-58
2021/07/10 00:02:41;;;;;;;22.47;18.07;;;;;;;15.59;78.78;102066.91;690970;28;911;-58
2021/07/10 00:03:02;;;;;;;23.58;17.80;;;;;;;15.61;78.63;102067.69;690996;28;875;-59
2021/07/10 00:03:22;;;;;;;23.48;17.65;;;;;;;15.58;78.39;102073.16;691104;28;843;-59
2021/07/10 00:03:42;;;;;;;23.03;17.73;;;;;;;15.57;78.62;102066.13;691078;28;1077;-58
2021/07/10 00:04:05;;;;;;;24.35;18.20;;;;;;;15.60;78.55;102065.97;691009;28;862;-58
2021/07/10 00:04:29;;;;;;;24.10;18.45;;;;;;;15.61;78.60;102062.38;691114;28;961;-58
2021/07/10 00:04:50;;;;;;;24.05;18.80;;;;;;;15.58;78.27;102066.97;691240;28;980;-58
2021/07/10 00:05:14;;;;;;;23.57;18.57;;;;;;;15.60;78.39;102065.97;691149;28;1038;-58
2021/07/10 00:05:35;;;;;;;23.10;18.05;;;;;;;15.61;78.26;102067.69;691179;28;893;-59
2021/07/10 00:05:55;;;;;;;23.10;18.13;;;;;;;15.57;78.28;102074.09;690994;28;881;-58
2021/07/10 00:06:15;;;;;;;26.07;18.80;;;;;;;15.52;78.38;102073.44;691182;28;987;-59
2021/07/10 00:06:36;;;;;;;24.80;18.80;;;;;;;15.55;78.63;102065.31;691194;28;955;-58
2021/07/10 00:06:59;;;;;;;23.57;18.57;;;;;;;15.58;78.54;102072.28;690921;28;1324;-58
2021/07/10 00:07:19;;;;;;;24.02;18.55;;;;;;;15.59;78.61;102069.59;691181;28;930;-58
2021/07/10 00:07:40;;;;;;;23.07;18.17;;;;;;;15.62;78.45;102069.44;691199;28;962;-58
2021/07/10 00:08:01;;;;;;;23.92;18.40;;;;;;;15.62;78.50;102069.44;691004;28;1005;-58
2021/07/10 00:08:21;;;;;;;23.92;18.23;;;;;;;15.60;78.31;102065.97;691220;28;836;-58
2021/07/10 00:08:42;;;;;;;21.83;17.63;;;;;;;15.63;78.59;102070.31;691043;28;890;-57
2021/07/10 00:09:03;;;;;;;22.40;17.60;;;;;;;15.63;78.20;102065.00;691125;28;1002;-57
2021/07/10 00:09:23;;;;;;;22.55;17.73;;;;;;;15.64;78.21;102061.41;691169;28;809;-58
2021/07/10 00:09:43;;;;;;;23.15;18.58;;;;;;;15.65;78.18;102066.63;691170;28;921;-57
2021/07/10 00:10:06;;;;;;;23.00;18.10;;;;;;;15.64;78.19;102067.56;691091;28;870;-58
2021/07/10 00:10:27;;;;;;;23.05;18.13;;;;;;;15.63;78.02;102065.84;690943;28;1038;-58
2021/07/10 00:10:47;;;;;;;24.00;18.58;;;;;;;15.61;78.29;102067.69;691102;28;912;-57
2021/07/10 00:11:08;;;;;;;24.27;18.40;;;;;;;15.59;78.46;102058.94;691222;28;947;-57
2021/07/10 00:11:28;;;;;;;24.20;17.97;;;;;;;15.60;78.34;102059.81;691073;28;836;-57
2021/07/10 00:11:49;;;;;;;22.52;17.30;;;;;;;15.62;78.53;102063.25;691244;28;888;-57
2021/07/10 00:12:09;;;;;;;23.10;17.67;;;;;;;15.61;78.36;102062.38;691092;28;872;-57
2021/07/10 00:12:29;;;;;;;23.42;18.08;;;;;;;15.61;78.35;102067.69;691091;28;904;-57
2021/07/10 00:12:50;;;;;;;22.87;17.80;;;;;;;15.60;78.50;102058.00;690706;28;809;-59
2021/07/10 00:13:10;;;;;;;23.87;18.80;;;;;;;15.56;78.40;102059.06;691228;28;867;-58
2021/07/10 00:13:30;;;;;;;23.80;18.52;;;;;;;15.55;78.46;102067.97;691136;28;899;-58
2021/07/10 00:13:50;;;;;;;23.67;18.13;;;;;;;15.51;78.80;102058.41;691276;28;881;-58
2021/07/10 00:14:11;;;;;;;22.47;17.47;;;;;;;15.52;78.62;102057.50;690960;28;978;-58
2021/07/10 00:14:31;;;;;;;23.98;17.80;;;;;;;15.48;78.98;102058.53;691196;28;900;-58
2021/07/10 00:14:57;;;;;;;24.10;18.10;;;;;;;15.50;78.70;102064.66;691227;28;962;-58
2021/07/10 00:15:21;;;;;;;23.23;17.98;;;;;;;15.42;79.30;102058.81;690550;28;1640;-58
2021/07/10 00:15:41;;;;;;;23.45;18.30;;;;;;;15.38;79.17;102051.88;691228;28;835;-58
2021/07/10 00:16:04;;;;;;;23.77;18.20;;;;;;;15.40;79.36;102058.00;691140;28;876;-58
2021/07/10 00:16:31;;;;;;;23.35;17.85;;;;;;;15.37;79.41;102059.00;691089;28;1096;-58
2021/07/10 00:16:51;;;;;;;24.50;18.60;;;;;;;15.40;79.17;102052.69;691131;28;1379;-58
2021/07/10 00:17:11;;;;;;;26.20;18.80;;;;;;;15.41;79.11;102057.06;691119;28;958;-58
2021/07/10 00:17:32;;;;;;;25.17;18.33;;;;;;;15.40;79.07;102058.00;691202;28;817;-58
2021/07/10 00:17:55;;;;;;;25.63;18.60;;;;;;;15.32;79.38;102061.00;691125;28;1006;-58
2021/07/10 00:18:16;;;;;;;24.33;18.58;;;;;;;15.31;79.57;102056.63;691078;28;1086;-58
2021/07/10 00:18:36;;;;;;;25.53;18.63;;;;;;;15.32;79.76;102061.00;690930;28;1031;-58
2021/07/10 00:18:56;;;;;;;24.88;18.38;;;;;;;15.35;79.63;102057.34;691127;28;864;-58
2021/07/10 00:19:17;;;;;;;23.43;18.33;;;;;;;15.37;79.59;102063.44;691203;28;835;-58
2021/07/10 00:19:37;;;;;;;23.00;18.07;;;;;;;15.34;79.28;102059.13;691104;28;976;-58
2021/07/10 00:19:57;;;;;;;23.60;18.50;;;;;;;15.38;79.21;102065.16;691090;28;987;-58
2021/07/10 00:20:18;;;;;;;23.13;18.40;;;;;;;15.38;79.08;102063.41;691180;28;992;-59
2021/07/10 00:20:39;;;;;;;22.98;18.60;;;;;;;15.39;79.27;102062.47;690943;28;759;-58
2021/07/10 00:20:59;;;;;;;24.08;18.58;;;;;;;15.43;79.20;102068.50;691151;28;982;-58
2021/07/10 00:21:19;;;;;;;24.70;18.47;;;;;;;15.41;79.20;102060.59;691175;28;1012;-58
2021/07/10 00:21:40;;;;;;;23.70;18.23;;;;;;;15.40;79.06;102058.88;691104;28;945;-58
2021/07/10 00:22:00;;;;;;;24.67;19.10;;;;;;;15.40;79.06;102060.66;691139;28;1914;-58
2021/07/10 00:22:20;;;;;;;24.03;18.93;;;;;;;15.40;78.82;102060.66;691121;28;861;-58
2021/07/10 00:22:41;;;;;;;25.15;19.10;;;;;;;15.38;79.18;102060.75;690734;28;828;-58
2021/07/10 00:23:01;;;;;;;24.70;18.43;;;;;;;15.41;78.92;102065.03;691032;28;864;-58
2021/07/10 00:23:23;;;;;;;24.90;18.27;;;;;;;15.39;78.84;102061.59;691108;28;832;-58
2021/07/10 00:23:43;;;;;;;25.38;17.95;;;;;;;15.41;79.14;102057.06;691193;28;1034;-58
2021/07/10 00:24:04;;;;;;;21.92;17.40;;;;;;;15.39;79.01;102056.28;691239;28;843;-58
2021/07/10 00:24:25;;;;;;;22.83;18.42;;;;;;;15.38;79.29;102065.16;691068;28;1006;-58
2021/07/10 00:24:46;;;;;;;23.77;18.33;;;;;;;15.39;79.17;102054.50;690980;28;863;-58
2021/07/10 00:25:12;;;;;;;23.00;17.65;;;;;;;15.41;79.37;102059.72;691156;28;830;-58
2021/07/10 00:25:33;;;;;;;23.27;18.38;;;;;;;15.42;78.90;102057.03;691107;28;889;-58
2021/07/10 00:25:53;;;;;;;22.90;17.40;;;;;;;15.42;79.20;102057.03;691179;28;919;-58
2021/07/10 00:26:13;;;;;;;22.70;17.77;;;;;;;15.40;79.09;102060.66;691037;28;923;-58
2021/07/10 00:26:34;;;;;;;23.17;17.80;;;;;;;15.36;79.25;102053.75;691089;28;801;-58
2021/07/10 00:26:54;;;;;;;24.13;17.87;;;;;;;15.36;79.34;102053.75;690893;28;1197;-58
2021/07/10 00:27:14;;;;;;;23.83;17.60;;;;;;;15.34;79.49;102047.63;691038;28;1025;-58
2021/07/10 00:27:35;;;;;;;23.13;17.83;;;;;;;15.35;79.33;102049.38;691126;28;985;-57
2021/07/10 00:27:56;;;;;;;22.98;17.35;;;;;;;15.36;79.21;102051.09;691100;28;925;-58
2021/07/10 00:28:16;;;;;;;23.40;17.27;;;;;;;15.34;79.37;102047.63;691130;28;855;-58
2021/07/10 00:28:36;;;;;;;23.80;17.33;;;;;;;15.37;79.16;102051.03;691102;28;860;-58
2021/07/10 00:28:57;;;;;;;22.83;17.53;;;;;;;15.34;79.41;102047.63;690908;28;971;-58
2021/07/10 00:29:17;;;;;;;21.83;17.73;;;;;;;15.29;79.43;102049.63;691191;28;907;-58
2021/07/10 00:29:37;;;;;;;23.40;17.67;;;;;;;15.30;79.59;102048.69;691061;28;935;-58
2021/07/10 00:29:58;;;;;;;23.13;17.42;;;;;;;15.29;79.40;102047.84;691068;28;935;-58
2021/07/10 00:30:20;;;;;;;21.87;16.87;;;;;;;15.28;79.52;102054.09;691133;28;895;-58
2021/07/10 00:30:40;;;;;;;23.27;17.45;;;;;;;15.23;79.49;102045.44;690951;28;854;-58
2021/07/10 00:31:00;;;;;;;21.73;16.90;;;;;;;15.27;79.64;102046.16;691062;28;947;-58
2021/07/10 00:31:21;;;;;;;22.58;18.02;;;;;;;15.30;79.65;102046.91;691174;28;840;-58
2021/07/10 00:31:41;;;;;;;22.60;17.53;;;;;;;15.23;79.52;102042.78;690991;28;982;-58
2021/07/10 00:32:02;;;;;;;23.20;17.90;;;;;;;15.23;79.87;102045.44;691195;28;810;-58
2021/07/10 00:32:22;;;;;;;23.77;18.00;;;;;;;15.20;79.99;102043.75;691096;28;919;-58
2021/07/10 00:32:42;;;;;;;24.50;17.73;;;;;;;15.17;80.10;102041.25;690478;28;987;-58
2021/07/10 00:33:03;;;;;;;22.93;17.13;;;;;;;15.22;79.82;102038.41;690872;28;937;-58
2021/07/10 00:33:24;;;;;;;23.90;17.75;;;;;;;15.23;79.66;102049.88;691107;28;876;-58
2021/07/10 00:33:45;;;;;;;23.87;18.13;;;;;;;15.20;79.83;102045.56;690952;28;857;-58
2021/07/10 00:34:05;;;;;;;23.10;17.88;;;;;;;15.20;79.85;102041.09;691150;28;895;-58
2021/07/10 00:34:25;;;;;;;23.70;17.63;;;;;;;15.24;79.87;102046.28;691053;28;950;-58
2021/07/10 00:34:46;;;;;;;25.97;17.67;;;;;;;15.25;79.99;102045.38;690977;28;951;-58
2021/07/10 00:35:07;;;;;;;25.07;17.40;;;;;;;15.24;79.86;102046.28;691002;28;865;-58
2021/07/10 00:35:28;;;;;;;24.55;17.55;;;;;;;15.24;79.62;102043.63;690948;28;1069;-58
2021/07/10 00:35:48;;;;;;;23.67;18.05;;;;;;;15.23;79.54;102044.56;691125;28;907;-59
2021/07/10 00:36:09;;;;;;;23.23;18.13;;;;;;;15.22;79.80;102041.06;691049;28;863;-58
2021/07/10 00:36:29;;;;;;;23.60;17.95;;;;;;;15.20;79.86;102040.25;691099;28;884;-58
2021/07/10 00:36:49;;;;;;;25.40;17.83;;;;;;;15.16;80.12;102038.66;691014;28;1335;-58
2021/07/10 00:37:09;;;;;;;24.87;18.20;;;;;;;15.19;79.84;102036.72;690925;28;883;-58
2021/07/10 00:37:30;;;;;;;24.73;18.05;;;;;;;15.20;80.02;102041.09;691152;28;903;-58
2021/07/10 00:37:50;;;;;;;23.77;17.90;;;;;;;15.20;80.06;102041.09;691143;28;879;-58
2021/07/10 00:38:11;;;;;;;24.57;17.80;;;;;;;15.23;79.91;102040.13;691030;28;860;-58
2021/07/10 00:38:31;;;;;;;23.90;17.30;;;;;;;15.20;79.67;102041.09;691121;28;875;-58
2021/07/10 00:38:53;;;;;;;23.92;17.58;;;;;;;15.24;79.80;102040.97;690900;28;987;-58
2021/07/10 00:39:13;;;;;;;24.55;17.40;;;;;;;15.25;79.75;102042.72;690963;28;919;-58
2021/07/10 00:39:33;;;;;;;22.77;17.42;;;;;;;15.22;79.44;102037.56;691076;28;827;-58
2021/07/10 00:39:54;;;;;;;22.53;17.87;;;;;;;15.23;79.76;102036.59;690948;28;886;-58
2021/07/10 00:40:15;;;;;;;24.53;17.90;;;;;;;15.24;79.67;102035.66;691048;28;880;-58
2021/07/10 00:40:35;;;;;;;24.98;18.15;;;;;;;15.24;79.50;102030.38;690953;28;1584;-58
2021/07/10 00:40:55;;;;;;;25.13;18.10;;;;;;;15.26;79.58;102037.34;690968;28;802;-58
2021/07/10 00:41:17;;;;;;;25.60;18.00;;;;;;;15.26;79.83;102039.13;690962;28;967;-57
2021/07/10 00:41:38;;;;;;;23.15;17.27;;;;;;;15.25;79.64;102034.78;691124;28;867;-59
2021/07/10 00:42:00;;;;;;;24.03;17.43;;;;;;;15.24;79.85;102038.31;690942;28;1969;-58
2021/07/10 00:42:22;;;;;;;25.98;18.15;;;;;;;15.18;80.06;102036.81;691068;28;884;-58
2021/07/10 00:42:42;;;;;;;25.95;18.60;;;;;;;15.14;79.91;102040.50;690620;28;1428;-58
2021/07/10 00:43:03;;;;;;;24.90;18.88;;;;;;;15.17;80.06;102038.63;690895;28;883;-58
2021/07/10 00:43:23;;;;;;;24.45;18.42;;;;;;;15.17;79.88;102040.38;691025;28;854;-58
2021/07/10 00:43:48;;;;;;;23.57;17.90;;;;;;;15.18;80.11;102035.03;690953;28;986;-60
2021/07/10 00:44:09;;;;;;;25.23;18.50;;;;;;;15.15;79.84;102036.94;691100;28;806;-58
2021/07/10 00:44:29;;;;;;;26.25;18.65;;;;;;;15.14;80.13;102040.50;690995;28;884;-58
2021/07/10 00:44:49;;;;;;;24.10;17.87;;;;;;;15.12;80.14;102039.72;690968;28;987;-57
2021/07/10 00:45:11;;;;;;;24.50;18.60;;;;;;;15.11;80.30;102045.97;690957;28;1010;-57
2021/07/10 00:45:31;;;;;;;23.88;18.48;;;;;;;15.04;80.19;102040.06;690885;28;927;-58
2021/07/10 00:45:51;;;;;;;26.40;18.17;;;;;;;15.07;80.50;102045.22;691139;28;927;-57
2021/07/10 00:46:16;;;;;;;27.50;18.73;;;;;;;15.10;80.32;102038.91;691047;28;931;-57
2021/07/10 00:46:37;;;;;;;24.85;18.48;;;;;;;15.10;80.51;102039.75;690997;28;856;-59
2021/07/10 00:46:57;;;;;;;24.63;18.33;;;;;;;15.13;80.17;102038.78;690997;28;1001;-58
2021/07/10 00:47:17;;;;;;;23.87;18.30;;;;;;;15.10;80.80;102039.75;691067;28;766;-58
2021/07/10 00:47:39;;;;;;;24.95;18.63;;;;;;;15.07;80.97;102039.03;691006;28;864;-59
2021/07/10 00:47:59;;;;;;;24.23;18.65;;;;;;;15.03;81.15;102038.28;691033;28;955;-58
2021/07/10 00:48:19;;;;;;;24.63;18.40;;;;;;;15.04;81.41;102040.06;691055;28;912;-59
2021/07/10 00:48:40;;;;;;;25.63;18.60;;;;;;;15.03;81.39;102035.66;691069;28;817;-58
2021/07/10 00:49:00;;;;;;;25.53;18.57;;;;;;;15.04;81.48;102040.06;690990;28;1042;-59
2021/07/10 00:49:20;;;;;;;24.80;18.60;;;;;;;15.07;81.46;102034.63;690954;28;908;-58
2021/07/10 00:49:44;;;;;;;25.50;18.97;;;;;;;15.08;81.52;102040.78;691045;28;860;-58
2021/07/10 00:50:12;;;;;;;24.75;18.70;;;;;;;15.11;81.30;102032.69;690928;28;955;-59
2021/07/10 00:50:32;;;;;;;26.45;18.75;;;;;;;15.09;80.95;102038.06;691070;28;895;-59
2021/07/10 00:50:53;;;;;;;25.53;19.20;;;;;;;15.11;81.24;102030.91;690882;28;982;-58
2021/07/10 00:51:14;;;;;;;25.15;19.08;;;;;;;15.15;81.19;102037.81;691039;28;852;-58
2021/07/10 00:51:35;;;;;;;24.15;18.55;;;;;;;15.16;81.00;102039.50;691092;28;808;-59
2021/07/10 00:51:55;;;;;;;24.63;18.85;;;;;;;15.18;80.74;102035.03;690942;28;864;-58
2021/07/10 00:52:15;;;;;;;23.80;18.57;;;;;;;15.22;80.96;102037.56;691026;28;998;-57
2021/07/10 00:52:35;;;;;;;24.30;18.10;;;;;;;15.19;80.70;102034.09;691117;28;927;-57
2021/07/10 00:52:56;;;;;;;23.67;17.75;;;;;;;15.21;80.51;102036.69;690438;28;796;-58
2021/07/10 00:53:16;;;;;;;24.63;18.27;;;;;;;15.20;80.82;102035.81;690964;28;975;-58
2021/07/10 00:53:36;;;;;;;25.03;18.67;;;;;;;15.18;80.53;102032.38;691107;28;1022;-58
2021/07/10 00:53:57;;;;;;;24.67;18.58;;;;;;;15.19;80.54;102036.72;690929;28;951;-58
2021/07/10 00:54:17;;;;;;;25.17;19.30;;;;;;;15.20;80.72;102032.28;691157;28;780;-58
2021/07/10 00:54:37;;;;;;;25.60;19.60;;;;;;;15.17;80.54;102028.00;690789;28;892;-58
2021/07/10 00:54:58;;;;;;;26.50;19.43;;;;;;;15.15;80.50;102027.19;690827;28;983;-58
2021/07/10 00:55:19;;;;;;;26.17;19.07;;;;;;;15.13;81.09;102025.50;691084;28;971;-57
2021/07/10 00:55:41;;;;;;;26.10;19.38;;;;;;;15.14;80.87;102027.22;690989;28;895;-58
2021/07/10 00:56:02;;;;;;;26.90;18.90;;;;;;;15.13;81.01;102030.81;690999;28;984;-59
2021/07/10 00:56:23;;;;;;;25.85;18.75;;;;;;;15.16;80.78;102030.69;690984;28;903;-57
2021/07/10 00:56:45;;;;;;;25.98;19.05;;;;;;;15.11;81.08;102030.91;690945;28;1170;-58
2021/07/10 00:57:08;;;;;;;26.25;19.58;;;;;;;15.04;81.34;102034.75;691017;28;860;-58
2021/07/10 00:57:28;;;;;;;27.02;19.70;;;;;;;15.07;81.46;102033.72;690936;28;887;-58
2021/07/10 00:57:51;;;;;;;27.05;19.70;;;;;;;15.10;81.19;102029.16;691115;28;852;-58
2021/07/10 00:58:11;;;;;;;25.25;19.00;;;;;;;15.12;81.11;102027.31;691030;28;940;-57
2021/07/10 00:58:33;;;;;;;24.90;19.13;;;;;;;15.12;81.16;102026.44;691001;28;757;-58
2021/07/10 00:58:54;;;;;;;26.65;19.35;;;;;;;15.08;81.44;102022.19;690976;28;880;-58
2021/07/10 00:59:15;;;;;;;25.33;19.20;;;;;;;15.11;81.41;102028.25;690893;28;970;-58
2021/07/10 00:59:37;;;;;;;26.02;19.25;;;;;;;15.15;81.31;102028.97;691030;28;1014;-58
2021/07/10 00:59:57;;;;;;;26.52;19.20;;;;;;;15.16;81.07;102028.91;691012;28;1094;-58
2021/07/10 01:00:20;;;;;;;28.00;20.07;;;;;;;15.14;81.15;102029.88;690870;28;860;-57
2021/07/10 01:00:41;;;;;;;27.20;19.65;;;;;;;15.14;81.45;102019.25;690894;28;1523;-57
2021/07/10 01:01:02;;;;;;;26.42;19.35;;;;;;;15.17;81.09;102028.00;690877;28;957;-58
2021/07/10 01:01:23;;;;;;;28.17;19.40;;;;;;;15.17;81.26;102029.75;691086;28;1042;-58
2021/07/10 01:01:44;;;;;;;26.42;19.15;;;;;;;15.18;81.30;102021.75;691076;28;998;-58
2021/07/10 01:02:04;;;;;;;25.70;18.83;;;;;;;15.23;81.41;102028.66;690937;28;2041;-61
2021/07/10 01:02:25;;;;;;;25.88;18.48;;;;;;;15.23;81.37;102018.03;690951;28;888;-58
2021/07/10 01:02:47;;;;;;;26.73;19.20;;;;;;;15.22;81.18;102021.63;690637;28;804;-58
2021/07/10 01:03:08;;;;;;;25.73;19.40;;;;;;;15.21;80.98;102023.41;691041;28;907;-58
2021/07/10 01:03:32;;;;;;;24.70;18.67;;;;;;;15.24;80.87;102020.59;691058;28;884;-57
2021/07/10 01:03:52;;;;;;;24.38;18.75;;;;;;;15.27;81.10;102024.91;691004;28;861;-58
2021/07/10 01:04:14;;;;;;;26.30;19.20;;;;;;;15.26;80.76;102023.22;691069;28;881;-58
2021/07/10 01:04:35;;;;;;;25.27;18.88;;;;;;;15.20;81.12;102019.88;690711;28;911;-58
2021/07/10 01:04:55;;;;;;;26.15;19.25;;;;;;;15.22;81.17;102016.31;690685;28;1006;-58
2021/07/10 01:05:26;;;;;;;26.60;19.33;;;;;;;15.24;81.10;102020.59;691022;28;909;-57
2021/07/10 01:05:47;;;;;;;25.08;19.08;;;;;;;15.23;80.64;102020.69;690877;28;1107;-58
2021/07/10 01:06:07;;;;;;;27.33;19.87;;;;;;;15.23;80.67;102023.34;691071;28;903;-58
2021/07/10 01:06:27;;;;;;;29.13;20.67;;;;;;;15.23;80.65;102018.03;690839;28;868;-59
2021/07/10 01:06:48;;;;;;;28.50;20.58;;;;;;;15.23;80.65;102021.53;690955;28;1288;-58
2021/07/10 01:07:08;;;;;;;26.87;19.97;;;;;;;15.26;80.50;102028.50;691011;28;998;-57
2021/07/10 01:07:28;;;;;;;27.07;19.73;;;;;;;15.22;80.54;102026.94;690939;28;992;-57
2021/07/10 01:07:49;;;;;;;28.77;19.98;;;;;;;15.22;80.53;102022.47;691013;28;935;-58
2021/07/10 01:08:10;;;;;;;28.77;20.27;;;;;;;15.15;80.60;102016.56;691107;28;884;-57
2021/07/10 01:08:30;;;;;;;28.10;20.60;;;;;;;15.15;80.55;102021.88;690831;28;948;-58
2021/07/10 01:08:51;;;;;;;29.48;21.05;;;;;;;15.14;80.89;102024.56;691016;28;882;-58
2021/07/10 01:09:11;;;;;;;29.10;21.27;;;;;;;15.08;81.05;102020.41;690948;28;872;-58
2021/07/10 01:09:31;;;;;;;29.77;21.67;;;;;;;15.07;81.15;102015.13;690890;28;903;-58
2021/07/10 01:09:52;;;;;;;28.60;21.30;;;;;;;15.09;80.70;102011.50;691038;28;947;-58
2021/07/10 01:10:13;;;;;;;29.03;21.57;;;;;;;15.10;80.64;102013.22;691004;28;817;-58
2021/07/10 01:10:33;;;;;;;29.33;21.52;;;;;;;15.10;80.99;102010.56;691000;28;781;-57
2021/07/10 01:10:54;;;;;;;29.70;21.23;;;;;;;15.13;81.01;102022.84;690963;28;880;-57
2021/07/10 01:11:15;;;;;;;27.60;20.10;;;;;;;15.14;80.72;102014.84;690868;28;848;-58
2021/07/10 01:11:35;;;;;;;29.73;21.23;;;;;;;15.13;80.58;102015.75;691045;28;1011;-57
2021/07/10 01:11:56;;;;;;;28.30;20.93;;;;;;;15.16;80.64;102012.97;691000;28;939;-57
2021/07/10 01:12:16;;;;;;;29.13;19.95;;;;;;;15.16;80.81;102012.97;690966;28;800;-57
2021/07/10 01:12:42;;;;;;;28.93;20.50;;;;;;;15.18;80.57;102011.13;690853;28;987;-57
2021/07/10 01:13:03;;;;;;;28.67;20.45;;;;;;;15.19;80.70;102007.53;690678;28;1067;-57
2021/07/10 01:13:24;;;;;;;29.13;20.65;;;;;;;15.22;80.48;102011.84;691025;28;1046;-57
2021/07/10 01:13:45;;;;;;;29.67;21.20;;;;;;;15.25;80.48;102011.72;690948;28;836;-57
2021/07/10 01:14:06;;;;;;;29.70;21.70;;;;;;;15.29;80.48;102007.13;690900;28;1136;-58
2021/07/10 01:14:26;;;;;;;28.77;21.00;;;;;;;15.31;80.15;102006.16;691016;28;974;-58
2021/07/10 01:14:47;;;;;;;31.10;21.17;;;;;;;15.30;80.33;102008.84;690827;28;817;-57
2021/07/10 01:15:09;;;;;;;28.50;20.60;;;;;;;15.29;80.13;102008.00;690889;28;810;-57
2021/07/10 01:15:30;;;;;;;29.23;21.17;;;;;;;15.30;80.19;102011.50;690979;28;952;-57
2021/07/10 01:15:51;;;;;;;28.50;20.70;;;;;;;15.27;80.35;102014.31;690931;28;856;-57
2021/07/10 01:16:11;;;;;;;28.90;20.73;;;;;;;15.27;80.18;102004.53;691017;28;1021;-58
2021/07/10 01:16:31;;;;;;;27.87;20.37;;;;;;;15.24;80.63;102003.81;690965;28;829;-58
2021/07/10 01:16:51;;;;;;;28.25;21.02;;;;;;;15.20;80.79;102003.94;690721;28;1312;-58
2021/07/10 01:17:12;;;;;;;29.43;21.50;;;;;;;15.20;80.84;102009.25;690931;28;813;-58
2021/07/10 01:17:32;;;;;;;28.57;21.33;;;;;;;15.18;81.43;102016.44;690921;28;863;-58
2021/07/10 01:17:56;;;;;;;29.17;21.80;;;;;;;15.12;81.33;102007.84;690937;28;1039;-58
2021/07/10 01:18:16;;;;;;;30.95;22.30;;;;;;;15.18;81.15;102011.13;690959;28;896;-58
2021/07/10 01:18:37;;;;;;;30.03;21.27;;;;;;;15.20;81.28;102013.69;690961;28;860;-57
2021/07/10 01:18:57;;;;;;;30.67;21.97;;;;;;;15.22;81.23;102006.53;690750;28;980;-58
2021/07/10 01:19:26;;;;;;;30.83;21.40;;;;;;;15.26;81.11;102017.91;690963;28;861;-57
2021/07/10 01:20:02;;;;;;;29.52;20.67;;;;;;;15.28;80.95;102010.69;690906;28;877;-58
2021/07/10 01:20:24;;;;;;;29.98;21.48;;;;;;;15.32;80.96;102009.66;690855;28;1023;-57
2021/07/10 01:20:48;;;;;;;29.13;20.42;;;;;;;15.36;80.68;102009.47;690929;28;990;-57
2021/07/10 01:21:08;;;;;;;29.33;20.90;;;;;;;15.38;80.90;102010.28;690801;28;1008;-58
2021/07/10 01:21:28;;;;;;;28.87;20.77;;;;;;;15.39;80.73;102008.47;690947;28;809;-57
2021/07/10 01:21:49;;;;;;;27.50;19.97;;;;;;;15.39;80.69;102003.16;690939;28;995;-57
2021/07/10 01:22:09;;;;;;;28.53;19.80;;;;;;;15.38;81.03;102007.63;690854;28;1906;-58
2021/07/10 01:22:29;;;;;;;27.83;20.30;;;;;;;15.39;81.00;102008.47;690943;28;839;-57
2021/07/10 01:22:51;;;;;;;27.90;19.87;;;;;;;15.36;80.87;102011.25;690531;28;865;-57
2021/07/10 01:23:11;;;;;;;30.20;20.67;;;;;;;15.33;80.68;102004.28;690783;28;888;-58
2021/07/10 01:23:31;;;;;;;28.77;20.65;;;;;;;15.34;81.03;102011.31;690961;28;864;-57
2021/07/10 01:23:52;;;;;;;28.53;20.00;;;;;;;15.37;80.68;102012.97;690893;28;829;-57
2021/07/10 01:24:12;;;;;;;29.47;19.97;;;;;;;15.39;80.96;102003.16;690956;28;827;-57
2021/07/10 01:24:32;;;;;;;29.10;21.00;;;;;;;15.41;80.76;102004.78;690974;28;983;-57
2021/07/10 01:24:53;;;;;;;30.43;20.77;;;;;;;15.41;80.57;102003.94;690793;28;850;-57
2021/07/10 01:25:17;;;;;;;30.73;20.50;;;;;;;15.40;80.40;102000.41;690813;28;883;-58
2021/07/10 01:25:37;;;;;;;29.15;20.27;;;;;;;15.46;80.50;102009.06;690984;28;884;-57
2021/07/10 01:25:57;;;;;;;28.08;20.10;;;;;;;15.43;80.66;102005.59;690839;28;828;-58
2021/07/10 01:26:19;;;;;;;27.57;20.03;;;;;;;15.44;80.23;102004.66;690986;28;789;-57
2021/07/10 01:26:39;;;;;;;29.23;19.95;;;;;;;15.44;80.48;102002.00;690887;28;1296;-57
2021/07/10 01:27:00;;;;;;;28.57;19.50;;;;;;;15.45;80.50;102008.22;690859;28;866;-57
2021/07/10 01:27:20;;;;;;;28.58;20.25;;;;;;;15.43;80.43;102008.25;690920;28;1077;-57
2021/07/10 01:27:41;;;;;;;29.00;20.23;;;;;;;15.34;80.70;102007.78;690847;28;768;-57
2021/07/10 01:28:02;;;;;;;29.27;19.88;;;;;;;15.32;80.66;102002.56;690982;28;859;-57
2021/07/10 01:28:23;;;;;;;29.50;20.02;;;;;;;15.35;80.73;102006.88;690988;28;860;-57
2021/07/10 01:28:43;;;;;;;26.52;19.23;;;;;;;15.36;80.71;102009.47;690911;28;848;-58
2021/07/10 01:29:04;;;;;;;27.65;19.40;;;;;;;15.39;80.65;102011.13;690818;28;1003;-57
2021/07/10 01:29:25;;;;;;;27.73;20.10;;;;;;;15.40;80.35;102002.22;690864;28;923;-57
2021/07/10 01:29:47;;;;;;;27.65;20.05;;;;;;;15.40;80.36;102000.41;690907;28;852;-57
2021/07/10 01:30:11;;;;;;;27.50;20.23;;;;;;;15.36;80.78;102011.25;690898;28;994;-57
2021/07/10 01:30:31;;;;;;;28.40;20.42;;;;;;;15.34;80.83;102003.34;690816;28;1102;-57
2021/07/10 01:30:51;;;;;;;28.67;20.52;;;;;;;15.35;80.70;102006.88;690990;28;901;-57
2021/07/10 01:31:12;;;;;;;29.37;20.27;;;;;;;15.35;80.78;102006.88;690828;28;1007;-57
2021/07/10 01:31:33;;;;;;;27.77;20.40;;;;;;;15.34;80.58;102000.69;690793;28;916;-57
2021/07/10 01:31:58;;;;;;;29.37;19.50;;;;;;;15.36;80.66;102003.28;691004;28;828;-57
2021/07/10 01:32:24;;;;;;;27.63;19.42;;;;;;;15.35;80.43;102001.56;690831;28;858;-57
2021/07/10 01:32:49;;;;;;;28.77;20.30;;;;;;;15.35;80.63;102001.56;690531;28;1038;-57
2021/07/10 01:33:09;;;;;;;29.02;20.05;;;;;;;15.33;80.87;102000.75;690823;28;836;-57
2021/07/10 01:33:30;;;;;;;27.48;19.88;;;;;;;15.33;80.79;102004.28;690956;28;844;-57
2021/07/10 01:33:50;;;;;;;29.55;20.65;;;;;;;15.29;80.47;101996.53;690995;28;996;-57
2021/07/10 01:34:10;;;;;;;32.00;20.93;;;;;;;15.30;80.64;101998.22;690905;28;955;-57
2021/07/10 01:34:34;;;;;;;29.80;20.77;;;;;;;15.27;80.87;102003.69;691002;28;971;-57
2021/07/10 01:34:54;;;;;;;28.85;21.52;;;;;;;15.26;80.77;102001.97;690878;28;851;-57
2021/07/10 01:35:15;;;;;;;30.87;21.83;;;;;;;15.24;80.65;101998.50;690760;28;1030;-58
2021/07/10 01:35:36;;;;;;;30.23;20.88;;;;;;;15.21;80.71;101999.50;690921;28;908;-57
2021/07/10 01:35:57;;;;;;;29.50;20.90;;;;;;;15.25;81.00;102002.91;690929;28;856;-58
2021/07/10 01:36:17;;;;;;;29.83;21.40;;;;;;;15.24;80.77;101998.50;691000;28;840;-58
2021/07/10 01:36:40;;;;;;;28.77;21.53;;;;;;;15.18;80.69;102000.50;690994;28;1391;-58
2021/07/10 01:37:00;;;;;;;29.65;20.98;;;;;;;15.15;80.92;102000.63;690868;28;826;-58
2021/07/10 01:37:20;;;;;;;31.93;21.30;;;;;;;15.15;80.64;102003.28;690966;28;959;-57
2021/07/10 01:37:42;;;;;;;31.20;21.67;;;;;;;15.12;80.94;101998.09;690874;28;965;-58
2021/07/10 01:38:09;;;;;;;29.73;21.05;;;;;;;15.15;80.93;102003.28;691033;28;907;-58
2021/07/10 01:38:29;;;;;;;30.30;21.35;;;;;;;15.18;80.61;102005.81;690962;28;1050;-58
2021/07/10 01:38:49;;;;;;;29.23;20.83;;;;;;;15.19;80.58;101999.56;690867;28;872;-58
2021/07/10 01:39:10;;;;;;;29.10;20.53;;;;;;;15.19;80.60;101999.56;690863;28;968;-58